Sunnfjord — WDI7834 — position and weather

sailwx.info

Track history (hours):
 
Tides and Currents Weather Stations Pressure Air Temp Water Temp Dewpoint Dewpoint Depression Visibility Wind Speed Wind Dir Waves Ship Positions

Sunnfjord

Owner: Johnson 338, Philip A, Astoria, OR. More information available from US FCC via Universal Licensing System and Coast Guard Vessel Documentation Center.

Last reported at 2018-Jan-31 15:10 UTC. Time now 2018-Jul-23 17:18 UTC.
Position N 48°25' W 124°40'.
Warning: this ship's position is months out of date.

Length 35 m.

Type: Fishing. MMSI: 367732670.

Date/timePositionNaut miles runAvg speedWind from/ knotsBaromVisibWave heightAir tempDewpointWater temp
2018-Jan-31 15:10N 48°25' W 124°40'2 8.6
2018-Jan-31 15:00N 48°25' W 124°38'2 4.2
2018-Jan-31 14:30N 48°24' W 124°35'0 0.1
2018-Jan-31 13:01N 48°24' W 124°35'1 2.0
2018-Jan-31 12:30N 48°25' W 124°36'1 1.5
2018-Jan-31 12:00N 48°24' W 124°36'4 6.8
2018-Jan-31 11:22N 48°26' W 124°41'1 2.3
2018-Jan-31 10:57N 48°25' W 124°40'3 6.9
2018-Jan-31 10:30N 48°24' W 124°36'3 6.6
2018-Jan-31 10:00N 48°23' W 124°31'  
2018-Jan-27 15:07N 48°07' W 123°25'0 0.2
2018-Jan-27 13:33N 48°08' W 123°25'0 0.9
2018-Jan-27 13:30N 48°08' W 123°25'0 0.2
2018-Jan-27 12:40N 48°08' W 123°25'0 0.5
2018-Jan-27 12:16N 48°08' W 123°25'0 0.5
2018-Jan-27 11:57N 48°08' W 123°25'0 0.2
2018-Jan-27 11:28N 48°08' W 123°25'  
Track history (hours):
 
Tides and Currents Weather Stations Pressure Air Temp Water Temp Dewpoint Dewpoint Depression Visibility Wind Speed Wind Dir Waves Ship Positions

Sunnfjord

Owner: Johnson 338, Philip A, Astoria, OR. More information available from US FCC via Universal Licensing System and Coast Guard Vessel Documentation Center.

Last reported at 2018-Jan-31 15:10 UTC. Time now 2018-Jul-23 17:18 UTC.
Position N 48°25' W 124°40'.
Warning: this ship's position is months out of date.

Length 35 m.

Type: Fishing. MMSI: 367732670.

Date/timePositionNaut miles runAvg speedWind from/ knotsBaromVisibWave heightAir tempDewpointWater temp
2018-Jan-31 15:10N 48°25' W 124°40'2 8.6
2018-Jan-31 15:00N 48°25' W 124°38'2 4.2
2018-Jan-31 14:30N 48°24' W 124°35'0 0.1
2018-Jan-31 13:01N 48°24' W 124°35'1 2.0
2018-Jan-31 12:30N 48°25' W 124°36'1 1.5
2018-Jan-31 12:00N 48°24' W 124°36'4 6.8
2018-Jan-31 11:22N 48°26' W 124°41'1 2.3
2018-Jan-31 10:57N 48°25' W 124°40'3 6.9
2018-Jan-31 10:30N 48°24' W 124°36'3 6.6
2018-Jan-31 10:00N 48°23' W 124°31'  
2018-Jan-27 15:07N 48°07' W 123°25'0 0.2
2018-Jan-27 13:33N 48°08' W 123°25'0 0.9
2018-Jan-27 13:30N 48°08' W 123°25'0 0.2
2018-Jan-27 12:40N 48°08' W 123°25'0 0.5
2018-Jan-27 12:16N 48°08' W 123°25'0 0.5
2018-Jan-27 11:57N 48°08' W 123°25'0 0.2
2018-Jan-27 11:28N 48°08' W 123°25'  

Dump ship's entire track history